»·PEaware :: SKY410 KHLN-KLVM

SKY410 :: KHLN-KLVM

FLIGHT INFORMATION

Flight Status: Arrived
Operator:
Sky High Charters
More flights by this operator :: More flights under this callsign
Pilot: Timothy L. (20714)
Aircraft: PIPER PA-46-310/350P MALIBU MIRAGE
(PA46)
More flights by this aircraft type
Origin: KHLN Helena Regl
United States
Destination: KLVM Mission
United States
More flights between these airports :: More routes between these airports
Route: +STAKK4 CONNS V2 LVM
File this flight plan on PilotEdge
Remarks: SKY7 LEG1
Altitude:
(Current/Filed)
13,000ft
Speed:
(Current/Filed)
170kts
Departed: 24-Nov-19 11:42 AM
Arrived: 24-Nov-19 12:52 PM
Distance/Time
Traveled:
84nm/1:10
Distance/Time
To Go:
Arrived

Flight Plot

Page will automatically refresh every two minutes.

Flight plan parsing failed; only flown route is shown


Map Options




Map Legend


Flown Route
Filed Route
Departure Airport
Arrival Airport
Navaid (VOR, NDB)
Fix

Horizontal Profiles

Position Reports

Time Latitude Longitude Heading Altitude Ground
Speed
24-Nov-19 11:15 46.602727 -111.991746 1 3878ft 0kts
24-Nov-19 11:16 46.602727 -111.991746 1 3878ft 0kts
24-Nov-19 11:17 46.602727 -111.991746 1 3878ft 0kts
24-Nov-19 11:18 46.602727 -111.991746 1 3878ft 0kts
24-Nov-19 11:19 46.602727 -111.991746 1 3878ft 0kts
24-Nov-19 11:20 46.602727 -111.991746 1 3878ft 0kts
24-Nov-19 11:21 46.602727 -111.991746 1 3878ft 0kts
24-Nov-19 11:22 46.602727 -111.991746 1 3878ft 0kts
24-Nov-19 11:23 46.602727 -111.991746 1 3878ft 0kts
24-Nov-19 11:24 46.602727 -111.991746 1 3878ft 0kts
24-Nov-19 11:25 46.602727 -111.991746 1 3878ft 0kts
24-Nov-19 11:26 46.602727 -111.991746 1 3878ft 0kts
24-Nov-19 11:28 46.602727 -111.991746 1 3878ft 0kts
24-Nov-19 11:29 46.602727 -111.991746 1 3878ft 0kts
24-Nov-19 11:30 46.602740 -111.991744 7 3878ft 1kts
24-Nov-19 11:31 46.603332 -111.990736 84 3873ft 3kts
24-Nov-19 11:32 46.603370 -111.988749 85 3867ft 10kts
24-Nov-19 11:33 46.603466 -111.986158 89 3862ft 6kts
24-Nov-19 11:34 46.603526 -111.983836 87 3859ft 11kts
24-Nov-19 11:35 46.603601 -111.981328 87 3858ft 6kts
24-Nov-19 11:36 46.603559 -111.977940 94 3858ft 14kts
24-Nov-19 11:37 46.603169 -111.973110 93 3853ft 16kts
24-Nov-19 11:38 46.602695 -111.969020 103 3850ft 16kts
24-Nov-19 11:39 46.602084 -111.965186 103 3848ft 13kts
24-Nov-19 11:40 46.602105 -111.963313 39 3844ft 0kts
24-Nov-19 11:41 46.603123 -111.963536 284 3840ft 17kts
24-Nov-19 11:42 46.606099 -111.984767 278 4396ft 90kts
24-Nov-19 11:43 46.617397 -111.998404 22 5454ft 89kts
24-Nov-19 11:44 46.620085 -111.976646 127 6515ft 90kts
24-Nov-19 11:44 46.611500 -111.960958 129 7331ft 90kts
24-Nov-19 11:46 46.603884 -111.935158 103 8437ft 91kts
24-Nov-19 11:47 46.599671 -111.908853 102 9300ft 103kts
24-Nov-19 11:47 46.595886 -111.885112 102 9994ft 115kts
24-Nov-19 11:49 46.589814 -111.847184 102 10969ft 131kts
24-Nov-19 11:50 46.584027 -111.810979 102 11797ft 142kts
24-Nov-19 11:50 46.578880 -111.778914 102 12481ft 149kts
24-Nov-19 11:51 46.572314 -111.738055 102 12991ft 165kts
24-Nov-19 11:53 46.563585 -111.683628 102 12994ft 181kts
24-Nov-19 11:53 46.556863 -111.642079 102 12992ft 187kts
24-Nov-19 11:54 46.532318 -111.609073 185 12994ft 189kts
24-Nov-19 11:55 46.496934 -111.625127 178 12992ft 191kts
24-Nov-19 11:56 46.467874 -111.592747 120 12994ft 192kts
24-Nov-19 11:57 46.448927 -111.544005 118 12991ft 192kts
24-Nov-19 11:58 46.430205 -111.494993 118 12990ft 192kts
24-Nov-19 11:59 46.411375 -111.446425 118 12991ft 192kts
24-Nov-19 12:00 46.392611 -111.398251 118 12991ft 192kts
24-Nov-19 12:01 46.373622 -111.349597 119 12992ft 193kts
24-Nov-19 12:02 46.355330 -111.302808 119 12990ft 193kts
24-Nov-19 12:03 46.336183 -111.253922 119 12991ft 193kts
24-Nov-19 12:04 46.317129 -111.205358 119 12990ft 193kts
24-Nov-19 12:05 46.298145 -111.157055 119 12990ft 193kts
24-Nov-19 12:06 46.279296 -111.109481 120 12991ft 193kts
24-Nov-19 12:07 46.255796 -111.067520 140 12992ft 192kts
24-Nov-19 12:08 46.226658 -111.033747 142 12990ft 192kts
24-Nov-19 12:09 46.197427 -111.000796 141 12748ft 202kts
24-Nov-19 12:10 46.166635 -110.965872 141 12544ft 204kts
24-Nov-19 12:11 46.135581 -110.930550 141 12337ft 204kts
24-Nov-19 12:12 46.104325 -110.895001 141 12124ft 203kts
24-Nov-19 12:13 46.073197 -110.859554 141 11911ft 201kts
24-Nov-19 12:14 46.041869 -110.824008 141 11696ft 200kts
24-Nov-19 12:15 46.010699 -110.788717 141 11482ft 200kts
24-Nov-19 12:16 45.979814 -110.753802 141 11269ft 199kts
24-Nov-19 12:17 45.948656 -110.718629 141 11055ft 199kts
24-Nov-19 12:18 45.917197 -110.683166 141 10997ft 192kts
24-Nov-19 12:19 45.887826 -110.650104 141 10998ft 188kts
24-Nov-19 12:20 45.858514 -110.617160 141 10990ft 186kts
24-Nov-19 12:21 45.829176 -110.584230 141 10990ft 185kts
24-Nov-19 12:22 45.800327 -110.551619 141 10990ft 185kts
24-Nov-19 12:23 45.771776 -110.519298 141 10990ft 185kts
24-Nov-19 12:24 45.743147 -110.486884 141 10990ft 185kts
24-Nov-19 12:25 45.714378 -110.454307 141 10986ft 182kts
24-Nov-19 12:26 45.706946 -110.414352 57 10963ft 173kts
24-Nov-19 12:27 45.724479 -110.368837 60 10465ft 182kts
24-Nov-19 12:28 45.742449 -110.320946 62 9942ft 182kts
24-Nov-19 12:29 45.759999 -110.272874 62 9418ft 181kts
24-Nov-19 12:30 45.777455 -110.224753 62 8892ft 181kts
24-Nov-19 12:31 45.794918 -110.176526 62 8585ft 168kts
24-Nov-19 12:32 45.806719 -110.131519 73 8473ft 158kts
24-Nov-19 12:33 45.816074 -110.085551 73 8247ft 159kts
24-Nov-19 12:34 45.825385 -110.039415 73 8029ft 162kts
24-Nov-19 12:35 45.835265 -109.994419 54 7982ft 154kts
24-Nov-19 12:36 45.860611 -109.997118 294 7997ft 147kts
24-Nov-19 12:37 45.853591 -110.034588 242 7992ft 146kts
24-Nov-19 12:38 45.839647 -110.070266 241 7990ft 145kts
24-Nov-19 12:39 45.826104 -110.106034 241 7990ft 144kts
24-Nov-19 12:40 45.812393 -110.141869 241 7990ft 144kts
24-Nov-19 12:41 45.798583 -110.177937 241 7990ft 144kts
24-Nov-19 12:42 45.784169 -110.215496 241 7527ft 156kts
24-Nov-19 12:43 45.769631 -110.253370 241 7024ft 149kts
24-Nov-19 12:44 45.756867 -110.286578 241 6881ft 118kts
24-Nov-19 12:45 45.746020 -110.317321 243 6608ft 137kts
24-Nov-19 12:46 45.734807 -110.348882 243 6087ft 109kts
24-Nov-19 12:47 45.725587 -110.374967 243 5638ft 98kts
24-Nov-19 12:48 45.717158 -110.398972 243 5298ft 88kts
24-Nov-19 12:49 45.710151 -110.421086 242 4843ft 83kts
24-Nov-19 12:50 45.700546 -110.440570 234 4647ft 65kts
24-Nov-19 12:51 45.695812 -110.450106 234 4653ft 24kts
24-Nov-19 12:52 45.695937 -110.452150 325 4652ft 5kts
24-Nov-19 12:53 45.696877 -110.452469 238 4651ft 3kts
24-Nov-19 12:54 45.696816 -110.452605 236 4651ft 0kts

Navigation Log

Ident Type
Flight plan parsing failed, navigation log unavailable